»·PEaware :: UAL241 KLAX-KLAS

UAL241 :: KLAX-KLAS

FLIGHT INFORMATION

Flight Status: Arrived
Operator:
United Airlines
More flights by this operator :: More flights under this callsign
Pilot: Ryan H. (12491)
Aircraft: BOEING 737-800
(B738)
More flights by this aircraft type
Origin: KLAX Los Angeles Intl
United States
Destination: KLAS McCarran Intl
United States
More flights between these airports :: More routes between these airports
Route: +ORCKA2 MISEN KEPEC6
File this flight plan on PilotEdge
Remarks:
Altitude:
(Current/Filed)
270ft
Speed:
(Current/Filed)
450kts
Departed: 04-Dec-17 04:24 PM
Arrived: 04-Dec-17 05:05 PM
Distance/Time
Traveled:
205nm/0:41
Distance/Time
To Go:
Arrived

Flight Plot

Page will automatically refresh every two minutes.

Flight plan parsing failed; only flown route is shown


Map Options




Map Legend


Flown Route
Filed Route
Departure Airport
Arrival Airport
Navaid (VOR, NDB)
Fix

Horizontal Profiles

Position Reports

Time Latitude Longitude Heading Altitude Ground
Speed
04-Dec-17 16:18 33.939842 -118.403820 307 135ft 0kts
04-Dec-17 16:19 33.939842 -118.403820 307 135ft 0kts
04-Dec-17 16:20 33.939842 -118.403820 307 135ft 0kts
04-Dec-17 16:21 33.939842 -118.403820 307 135ft 0kts
04-Dec-17 16:22 33.939842 -118.403820 307 135ft 0kts
04-Dec-17 16:23 33.939842 -118.403820 307 135ft 0kts
04-Dec-17 16:24 33.939842 -118.403820 307 135ft 0kts
04-Dec-17 16:25 33.939842 -118.403820 307 135ft 0kts
04-Dec-17 16:26 33.939842 -118.403820 307 135ft 0kts
04-Dec-17 16:27 33.939233 -118.403778 89 135ft 0kts
04-Dec-17 16:28 33.938833 -118.399460 82 135ft 32kts
04-Dec-17 16:29 33.940373 -118.384328 81 135ft 47kts
04-Dec-17 16:30 33.939867 -118.380437 234 135ft 9kts
04-Dec-17 16:31 33.936375 -118.412619 262 1157ft 174kts
04-Dec-17 16:32 33.925707 -118.484283 248 3437ft 257kts
04-Dec-17 16:33 33.898704 -118.565331 248 4919ft 264kts
04-Dec-17 16:34 33.859975 -118.637311 199 5956ft 269kts
04-Dec-17 16:35 33.805542 -118.586135 97 9570ft 311kts
04-Dec-17 16:36 33.816299 -118.494781 44 11744ft 356kts
04-Dec-17 16:37 33.903173 -118.438141 20 13754ft 402kts
04-Dec-17 16:38 33.990787 -118.354395 51 14985ft 422kts
04-Dec-17 16:39 34.058513 -118.238952 53 16826ft 432kts
04-Dec-17 16:40 34.128196 -118.116856 53 19560ft 453kts
04-Dec-17 16:41 34.200407 -117.990702 53 22059ft 467kts
04-Dec-17 16:42 34.275717 -117.859217 53 24031ft 484kts
04-Dec-17 16:43 34.352984 -117.723940 53 25794ft 495kts
04-Dec-17 16:44 34.432077 -117.585600 53 25839ft 507kts
04-Dec-17 16:45 34.509848 -117.449881 53 24967ft 488kts
04-Dec-17 16:46 34.587568 -117.313182 53 26334ft 498kts
04-Dec-17 16:47 34.666506 -117.174488 53 26993ft 497kts
04-Dec-17 16:48 34.744779 -117.036673 53 27003ft 493kts
04-Dec-17 16:49 34.822413 -116.899713 53 27003ft 491kts
04-Dec-17 16:50 34.899988 -116.762649 53 26983ft 487kts
04-Dec-17 16:51 34.976055 -116.628096 53 24313ft 475kts
04-Dec-17 16:52 35.051061 -116.494974 53 24007ft 480kts
04-Dec-17 16:53 35.131572 -116.364612 43 24004ft 479kts
04-Dec-17 16:54 35.223793 -116.250761 43 21851ft 464kts
04-Dec-17 16:55 35.312087 -116.139469 43 19407ft 448kts
04-Dec-17 16:56 35.397757 -116.031256 43 16996ft 434kts
04-Dec-17 16:57 35.480298 -115.926916 43 14690ft 419kts
04-Dec-17 16:58 35.559542 -115.826627 43 13044ft 392kts
04-Dec-17 16:59 35.626163 -115.733447 54 12736ft 335kts
04-Dec-17 17:00 35.674348 -115.642013 54 11293ft 323kts
04-Dec-17 17:01 35.724497 -115.546995 54 9317ft 318kts
04-Dec-17 17:02 35.769177 -115.462301 54 8073ft 272kts
04-Dec-17 17:03 35.809499 -115.385686 56 6824ft 260kts
04-Dec-17 17:04 35.849749 -115.311020 45 6774ft 254kts
04-Dec-17 17:05 35.894494 -115.274659 26 6591ft 211kts
04-Dec-17 17:06 35.949342 -115.242373 24 5349ft 213kts
04-Dec-17 17:07 36.003765 -115.211294 24 4026ft 202kts
04-Dec-17 17:08 36.049817 -115.184879 24 2888ft 166kts
04-Dec-17 17:09 36.085778 -115.164401 23 2190ft 56kts
04-Dec-17 17:10 36.088776 -115.161403 134 2190ft 0kts
04-Dec-17 17:11 36.087305 -115.158015 120 2190ft 10kts
04-Dec-17 17:12 36.086702 -115.154777 126 2190ft 5kts
04-Dec-17 17:13 36.087604 -115.153109 98 2190ft 10kts
04-Dec-17 17:14 36.082540 -115.153603 65 2190ft 0kts

Navigation Log

Ident Type
Flight plan parsing failed, navigation log unavailable